createdAt,value
2019-05-23T00:01:54.943Z,101166.30
2019-05-23T00:04:28.842Z,101170.71
2019-05-23T00:06:58.772Z,101172.19
2019-05-23T00:09:28.404Z,101173.91
2019-05-23T00:12:22.502Z,101174.55
2019-05-23T00:14:55.814Z,101173.16
2019-05-23T00:17:26.353Z,101165.70
2019-05-23T00:19:55.799Z,101176.34
2019-05-23T00:22:34.065Z,101185.19
2019-05-23T00:25:03.011Z,101180.82
2019-05-23T00:27:32.782Z,101177.47
2019-05-23T00:30:03.361Z,101178.09
2019-05-23T00:32:38.258Z,101173.75
2019-05-23T00:35:07.850Z,101178.82
2019-05-23T00:37:37.720Z,101170.70
2019-05-23T00:40:08.790Z,101179.59
2019-05-23T00:42:37.783Z,101172.92
2019-05-23T00:45:07.703Z,101175.38
2019-05-23T00:47:36.484Z,101170.88
2019-05-23T00:50:07.007Z,101171.66
2019-05-23T00:52:37.343Z,101174.21
2019-05-23T00:55:08.397Z,101168.22
2019-05-23T00:57:39.615Z,101167.18
2019-05-23T01:00:11.190Z,101167.95
2019-05-23T01:02:40.966Z,101171.82
2019-05-23T01:05:12.862Z,101173.42
2019-05-23T01:07:43.463Z,101171.43
2019-05-23T01:10:14.171Z,101169.41
2019-05-23T01:12:43.435Z,101168.73
2019-05-23T01:15:13.202Z,101162.06
2019-05-23T01:17:42.846Z,101167.64
2019-05-23T01:20:14.700Z,101168.87
2019-05-23T01:22:44.382Z,101164.25
2019-05-23T01:25:15.502Z,101161.55
2019-05-23T01:27:44.545Z,101167.10
2019-05-23T01:30:16.530Z,101162.94
2019-05-23T01:32:47.773Z,101160.58
2019-05-23T01:35:20.155Z,101161.83
2019-05-23T01:37:49.367Z,101162.94
2019-05-23T01:40:18.502Z,101161.28
2019-05-23T01:42:47.702Z,101160.45
2019-05-23T01:45:17.621Z,101155.92
2019-05-23T01:47:49.295Z,101158.49
2019-05-23T01:50:20.658Z,101153.16
2019-05-23T01:52:50.052Z,101159.04
2019-05-23T01:55:18.906Z,101155.09
2019-05-23T01:57:48.655Z,101155.24
2019-05-23T02:00:19.032Z,101155.95
2019-05-23T02:02:48.520Z,101149.70
2019-05-23T02:05:18.055Z,101154.97
2019-05-23T02:07:47.688Z,101148.05
2019-05-23T02:10:18.143Z,101149.37
2019-05-23T02:12:48.219Z,101148.51
2019-05-23T02:15:18.681Z,101144.44
2019-05-23T02:17:49.964Z,101136.66
2019-05-23T02:20:20.278Z,101140.42
2019-05-23T02:22:49.167Z,101136.05
2019-05-23T02:25:21.174Z,101139.59
2019-05-23T02:27:50.964Z,101142.25
2019-05-23T02:30:33.747Z,101142.67
2019-05-23T02:32:52.957Z,101139.11
2019-05-23T02:35:22.712Z,101137.12
2019-05-23T02:37:59.348Z,101137.73
2019-05-23T02:40:46.541Z,101136.19
2019-05-23T02:43:19.322Z,101140.22
2019-05-23T02:45:51.541Z,101138.53
2019-05-23T02:48:25.950Z,101133.77
2019-05-23T02:51:02.826Z,101129.75
2019-05-23T02:53:35.226Z,101139.00
2019-05-23T02:56:08.050Z,101131.27
2019-05-23T02:58:47.730Z,101133.06
2019-05-23T03:01:48.504Z,101132.96
2019-05-23T03:04:21.139Z,101122.52
2019-05-23T03:06:51.752Z,101124.44
2019-05-23T03:09:23.579Z,101126.02
2019-05-23T03:11:59.029Z,101123.54
2019-05-23T03:14:27.894Z,101126.17
2019-05-23T03:16:59.712Z,101116.13
2019-05-23T03:19:38.390Z,101115.87
2019-05-23T03:22:31.055Z,101113.02
2019-05-23T03:25:01.346Z,101112.68
2019-05-23T03:27:31.973Z,101112.31
2019-05-23T03:30:02.744Z,101112.95
2019-05-23T03:32:45.310Z,101112.09
2019-05-23T03:35:24.095Z,101111.75
2019-05-23T03:37:53.650Z,101108.44
2019-05-23T03:40:23.078Z,101108.89
2019-05-23T03:42:52.097Z,101115.35
2019-05-23T03:45:26.151Z,101110.77
2019-05-23T03:47:56.009Z,101110.66
2019-05-23T03:50:26.449Z,101105.25
2019-05-23T03:52:57.115Z,101104.98
2019-05-23T03:55:28.340Z,101106.85
2019-05-23T03:57:57.779Z,101105.64
2019-05-23T04:00:31.783Z,101101.81
2019-05-23T04:03:02.467Z,101105.00
2019-05-23T04:05:31.631Z,101102.17
2019-05-23T04:08:01.794Z,101107.59
2019-05-23T04:10:30.922Z,101097.38
2019-05-23T04:12:59.873Z,101108.22
2019-05-23T04:15:29.426Z,101098.36
2019-05-23T04:17:58.367Z,101109.96
2019-05-23T04:20:28.183Z,101103.41
2019-05-23T04:22:57.513Z,101101.99
2019-05-23T04:25:26.451Z,101106.88
2019-05-23T04:27:56.387Z,101111.14
2019-05-23T04:30:25.173Z,101120.16
2019-05-23T04:32:54.057Z,101118.70
2019-05-23T04:35:23.193Z,101117.52
2019-05-23T04:37:52.687Z,101118.52
2019-05-23T04:40:21.690Z,101122.52
2019-05-23T04:42:50.763Z,101119.55
2019-05-23T04:45:20.192Z,101122.92
2019-05-23T04:47:49.167Z,101118.13
2019-05-23T04:50:18.786Z,101124.75
2019-05-23T04:52:48.200Z,101130.89
2019-05-23T04:55:18.573Z,101130.19
2019-05-23T04:57:47.921Z,101124.37
2019-05-23T05:00:17.545Z,101123.57
2019-05-23T05:02:46.733Z,101119.45
2019-05-23T05:05:16.126Z,101116.05
2019-05-23T05:07:45.337Z,101117.39
2019-05-23T05:10:17.180Z,101122.83
2019-05-23T05:12:46.155Z,101122.09
2019-05-23T05:15:15.546Z,101118.05
2019-05-23T05:17:45.452Z,101118.08
2019-05-23T05:20:15.139Z,101117.19
2019-05-23T05:22:44.049Z,101115.92
2019-05-23T05:25:13.334Z,101116.75
2019-05-23T05:27:42.277Z,101123.38
2019-05-23T05:30:12.409Z,101118.28
2019-05-23T05:32:45.190Z,101124.31
2019-05-23T05:35:12.311Z,101123.02
2019-05-23T05:37:41.509Z,101122.86
2019-05-23T05:40:10.863Z,101125.28
2019-05-23T05:42:41.905Z,101132.83
2019-05-23T05:45:11.557Z,101126.13
2019-05-23T05:47:40.979Z,101133.30
2019-05-23T05:50:12.260Z,101133.09
2019-05-23T05:52:41.144Z,101127.04
2019-05-23T05:55:10.289Z,101137.77
2019-05-23T05:57:39.344Z,101136.59
2019-05-23T06:00:13.485Z,101140.03
2019-05-23T06:02:42.958Z,101136.18
2019-05-23T06:05:17.051Z,101141.62
2019-05-23T06:07:46.178Z,101139.81
2019-05-23T06:10:16.420Z,101140.07
2019-05-23T06:12:45.707Z,101136.67
2019-05-23T06:15:15.684Z,101137.50
2019-05-23T06:17:44.670Z,101140.89
2019-05-23T06:20:14.440Z,101140.70
2019-05-23T06:22:44.899Z,101137.39
2019-05-23T06:25:14.116Z,101137.23
2019-05-23T06:27:44.233Z,101138.72
2019-05-23T06:30:16.337Z,101140.70
2019-05-23T06:32:46.039Z,101139.69
2019-05-23T06:35:15.224Z,101137.95
2019-05-23T06:37:44.718Z,101132.63
2019-05-23T06:40:15.407Z,101134.20
2019-05-23T06:42:44.544Z,101136.77
2019-05-23T06:45:15.169Z,101132.91
2019-05-23T06:47:44.661Z,101137.53
2019-05-23T06:50:17.298Z,101132.13
2019-05-23T06:52:46.410Z,101137.81
2019-05-23T06:55:15.590Z,101136.93
2019-05-23T06:57:44.748Z,101140.61
2019-05-23T07:00:16.734Z,101140.61
2019-05-23T07:02:46.311Z,101146.95
2019-05-23T07:05:17.451Z,101145.27
2019-05-23T07:07:46.569Z,101145.88
2019-05-23T07:10:15.659Z,101149.45
2019-05-23T07:12:45.160Z,101147.45
2019-05-23T07:15:14.394Z,101141.70
2019-05-23T07:17:43.265Z,101138.73
2019-05-23T07:20:12.843Z,101143.36
2019-05-23T07:22:41.872Z,101139.50
2019-05-23T07:25:11.709Z,101137.59
2019-05-23T07:27:40.931Z,101137.28
2019-05-23T07:30:15.531Z,101139.89
2019-05-23T07:32:44.596Z,101137.67
2019-05-23T07:35:13.940Z,101141.54
2019-05-23T07:37:43.226Z,101140.62
2019-05-23T07:40:12.785Z,101140.34
2019-05-23T07:42:42.232Z,101140.66
2019-05-23T07:45:14.984Z,101137.06
2019-05-23T07:47:43.901Z,101141.88
2019-05-23T07:50:13.154Z,101137.44
2019-05-23T07:52:42.683Z,101141.58
2019-05-23T07:55:30.690Z,101140.03
2019-05-23T07:58:00.719Z,101136.09
2019-05-23T08:00:32.810Z,101133.18
2019-05-23T08:03:04.681Z,101140.11
2019-05-23T08:05:34.284Z,101139.53
2019-05-23T08:08:04.155Z,101139.89
2019-05-23T08:10:34.707Z,101128.91
2019-05-23T08:13:03.785Z,101132.27
2019-05-23T08:15:32.686Z,101132.02
2019-05-23T08:18:01.921Z,101132.66
2019-05-23T08:20:31.016Z,101125.94
2019-05-23T08:23:00.234Z,101129.09
2019-05-23T08:25:29.444Z,101128.03
2019-05-23T08:27:58.460Z,101123.52
2019-05-23T08:30:27.380Z,101129.23
2019-05-23T08:32:56.482Z,101126.99
2019-05-23T08:35:25.386Z,101132.89
2019-05-23T08:37:54.984Z,101121.52
2019-05-23T08:40:25.286Z,101138.92
2019-05-23T08:42:54.794Z,101135.96
2019-05-23T08:45:23.735Z,101133.03
2019-05-23T08:47:53.058Z,101131.27
2019-05-23T08:50:22.584Z,101123.81
2019-05-23T08:52:51.993Z,101129.11
2019-05-23T08:55:22.309Z,101124.66
2019-05-23T08:57:51.944Z,101125.81
2019-05-23T09:00:21.666Z,101117.86
2019-05-23T09:02:51.643Z,101117.38
2019-05-23T09:05:23.709Z,101122.72
2019-05-23T09:07:54.009Z,101124.78
2019-05-23T09:10:23.235Z,101124.39
2019-05-23T09:12:52.635Z,101119.66
2019-05-23T09:15:21.931Z,101118.32
2019-05-23T09:17:53.635Z,101120.53
2019-05-23T09:20:22.188Z,101113.43
2019-05-23T09:22:51.784Z,101109.15
2019-05-23T09:25:21.078Z,101108.63
2019-05-23T09:27:51.832Z,101115.22
2019-05-23T09:30:21.740Z,101110.02
2019-05-23T09:32:50.791Z,101108.11
2019-05-23T09:35:22.190Z,101102.88
2019-05-23T09:37:51.354Z,101098.70
2019-05-23T09:40:20.590Z,101103.64
2019-05-23T09:42:49.447Z,101102.91
2019-05-23T09:45:19.043Z,101095.42
2019-05-23T09:47:51.069Z,101102.23
2019-05-23T09:50:20.295Z,101090.79
2019-05-23T09:52:49.158Z,101092.45
2019-05-23T09:55:18.924Z,101090.70
2019-05-23T09:57:47.784Z,101092.76
2019-05-23T10:00:20.306Z,101097.60
2019-05-23T10:02:49.929Z,101090.11
2019-05-23T10:05:18.818Z,101085.27
2019-05-23T10:07:48.325Z,101081.98
2019-05-23T10:10:17.667Z,101084.54
2019-05-23T10:12:46.601Z,101090.22
2019-05-23T10:15:34.576Z,101088.37
2019-05-23T10:18:03.993Z,101089.19
2019-05-23T10:20:33.760Z,101078.49
2019-05-23T10:23:03.971Z,101077.75
2019-05-23T10:25:33.203Z,101076.25
2019-05-23T10:28:02.474Z,101070.08
2019-05-23T10:30:31.383Z,101073.57
2019-05-23T10:33:00.253Z,101065.31
2019-05-23T10:35:29.415Z,101067.06
2019-05-23T10:37:58.411Z,101060.58
2019-05-23T10:40:28.104Z,101070.22
2019-05-23T10:42:56.934Z,101063.81
2019-05-23T10:45:26.457Z,101069.34
2019-05-23T10:47:56.168Z,101064.63
2019-05-23T10:50:25.058Z,101052.44
2019-05-23T10:52:54.076Z,101054.56
2019-05-23T10:55:23.329Z,101051.39
2019-05-23T10:57:52.409Z,101046.48
2019-05-23T11:00:23.330Z,101047.24
2019-05-23T11:02:52.385Z,101043.45
2019-05-23T11:05:21.559Z,101038.58
2019-05-23T11:07:50.444Z,101039.17
2019-05-23T11:10:19.576Z,101039.07
2019-05-23T11:12:48.833Z,101038.77
2019-05-23T11:15:17.705Z,101029.13
2019-05-23T11:17:46.562Z,101032.80
2019-05-23T11:20:17.162Z,101026.39
2019-05-23T11:22:46.404Z,101023.16
2019-05-23T11:25:16.823Z,101018.30
2019-05-23T11:27:45.908Z,101019.84
2019-05-23T11:30:20.527Z,101013.42
2019-05-23T11:32:49.862Z,101019.50
2019-05-23T11:35:18.954Z,101016.30
2019-05-23T11:37:47.716Z,101012.00
2019-05-23T11:40:16.579Z,101008.06
2019-05-23T11:42:45.420Z,101007.27
2019-05-23T11:45:14.459Z,101005.52
2019-05-23T11:47:43.589Z,101011.73
2019-05-23T11:50:12.556Z,101008.12
2019-05-23T11:52:41.853Z,100998.38
2019-05-23T11:55:10.802Z,100998.64
2019-05-23T11:57:39.722Z,101002.80
2019-05-23T12:00:11.112Z,101001.73
2019-05-23T12:02:43.679Z,100997.52
2019-05-23T12:05:16.932Z,101001.53
2019-05-23T12:07:47.757Z,101004.98
2019-05-23T12:10:17.202Z,100995.41
2019-05-23T12:12:46.197Z,100994.56
2019-05-23T12:15:19.886Z,100994.48
2019-05-23T12:17:48.836Z,100995.53
2019-05-23T12:20:18.391Z,100995.67
2019-05-23T12:22:47.728Z,100990.69
2019-05-23T12:25:22.459Z,100979.45
2019-05-23T12:27:47.735Z,100983.77
2019-05-23T12:30:16.919Z,100981.77
2019-05-23T12:32:46.128Z,100979.78
2019-05-23T12:35:15.168Z,100973.86
2019-05-23T12:37:44.120Z,100978.32
2019-05-23T12:40:13.603Z,100974.67
2019-05-23T12:42:42.634Z,100973.89
2019-05-23T12:45:11.905Z,100972.28
2019-05-23T12:47:52.075Z,100964.34
2019-05-23T12:50:24.987Z,100965.92
2019-05-23T12:52:53.872Z,100965.33
2019-05-23T12:55:23.298Z,100965.33
2019-05-23T12:57:52.754Z,100961.88
2019-05-23T13:00:33.763Z,100957.11
2019-05-23T13:03:02.712Z,100954.80
2019-05-23T13:05:31.812Z,100958.22
2019-05-23T13:08:00.711Z,100949.72
2019-05-23T13:10:29.562Z,100956.52
2019-05-23T13:12:58.878Z,100939.42
2019-05-23T13:15:28.405Z,100944.94
2019-05-23T13:17:57.602Z,100950.38
2019-05-23T13:20:26.613Z,100948.69
2019-05-23T13:22:56.098Z,100946.66
2019-05-23T13:25:26.315Z,100941.79
2019-05-23T13:27:58.492Z,100942.72
2019-05-23T13:30:26.284Z,100945.74
2019-05-23T13:32:55.220Z,100933.52
2019-05-23T13:35:25.162Z,100931.67
2019-05-23T13:37:54.730Z,100934.55
2019-05-23T13:40:23.714Z,100926.14
2019-05-23T13:42:52.929Z,100930.62
2019-05-23T13:45:22.249Z,100927.84
2019-05-23T13:47:51.993Z,100927.84
2019-05-23T13:50:21.100Z,100925.59
2019-05-23T14:31:22.956Z,100898.49
2019-05-23T14:34:09.388Z,100897.67
2019-05-23T14:36:57.713Z,100900.94
2019-05-23T14:39:32.564Z,100895.36
2019-05-23T14:42:19.119Z,100895.64
2019-05-23T14:44:48.561Z,100893.69
2019-05-23T14:47:44.685Z,100891.16
2019-05-23T14:50:38.910Z,100889.66
2019-05-23T14:53:07.944Z,100891.66
2019-05-23T14:55:36.911Z,100885.10
2019-05-23T14:58:06.599Z,100882.57
2019-05-23T15:00:35.512Z,100881.23
2019-05-23T15:03:04.932Z,100873.34
2019-05-23T15:05:34.073Z,100878.19
2019-05-23T15:08:03.481Z,100883.19
2019-05-23T15:10:32.753Z,100874.81
2019-05-23T15:13:01.973Z,100875.69
2019-05-23T15:15:31.061Z,100870.79
2019-05-23T15:17:59.929Z,100876.98
2019-05-23T15:20:29.846Z,100874.56
2019-05-23T15:23:00.160Z,100872.27
2019-05-23T15:25:29.128Z,100861.81
2019-05-23T15:27:58.279Z,100863.91
2019-05-23T15:30:27.165Z,100866.98
2019-05-23T15:32:56.043Z,100862.24
2019-05-23T15:35:24.980Z,100855.01
2019-05-23T15:37:53.954Z,100854.64
2019-05-23T15:40:23.362Z,100853.82
2019-05-23T15:42:52.390Z,100851.63
2019-05-23T15:45:21.616Z,100848.19
2019-05-23T15:47:50.989Z,100845.41
2019-05-23T15:50:22.789Z,100848.31
2019-05-23T15:53:03.550Z,100840.78
2019-05-23T15:55:51.745Z,100838.98
2019-05-23T15:58:29.649Z,100837.56
2019-05-23T16:01:03.370Z,100837.78
2019-05-23T16:03:44.898Z,100835.79
2019-05-23T16:06:15.679Z,100834.28
2019-05-23T16:08:44.991Z,100826.94
2019-05-23T16:11:17.428Z,100834.61
2019-05-23T16:13:44.737Z,100831.99
2019-05-23T16:16:13.715Z,100831.00
2019-05-23T16:18:43.930Z,100835.88
2019-05-23T16:21:13.675Z,100835.94
2019-05-23T16:23:42.624Z,100836.77
2019-05-23T16:26:12.030Z,100833.89
2019-05-23T16:28:40.898Z,100827.35
2019-05-23T16:31:09.897Z,100825.44
2019-05-23T16:33:38.869Z,100825.06
2019-05-23T16:36:08.176Z,100833.70
2019-05-23T16:38:37.052Z,100829.66
2019-05-23T16:41:05.901Z,100823.48
2019-05-23T16:43:34.817Z,100828.17
2019-05-23T16:46:03.774Z,100823.55
2019-05-23T16:48:33.424Z,100821.47
2019-05-23T16:51:02.429Z,100821.76
2019-05-23T16:53:35.677Z,100816.12
2019-05-23T16:56:14.766Z,100816.20
2019-05-23T16:58:50.443Z,100820.34
2019-05-23T17:01:54.850Z,100824.44
2019-05-23T17:04:21.042Z,100826.70
2019-05-23T17:06:56.202Z,100824.44
2019-05-23T17:10:06.949Z,100832.89
2019-05-23T17:12:57.871Z,100825.06
2019-05-23T17:15:51.363Z,100828.14
2019-05-23T17:18:39.656Z,100823.47
2019-05-23T17:21:30.729Z,100826.96
2019-05-23T17:24:05.702Z,100825.05
2019-05-23T17:26:51.624Z,100818.50
2019-05-23T17:29:38.433Z,100815.30
2019-05-23T17:32:10.820Z,100813.23
2019-05-23T17:34:40.023Z,100811.23
2019-05-23T17:37:10.362Z,100811.09
2019-05-23T17:39:40.028Z,100806.87
2019-05-23T17:42:08.973Z,100801.56
2019-05-23T17:44:38.381Z,100807.54
2019-05-23T17:47:07.293Z,100800.50
2019-05-23T17:49:36.899Z,100800.59
2019-05-23T17:52:06.283Z,100801.44
2019-05-23T17:54:35.728Z,100800.50
2019-05-23T17:57:04.682Z,100799.50
2019-05-23T17:59:34.763Z,100801.51
2019-05-23T18:02:04.679Z,100789.03
2019-05-23T18:04:33.849Z,100793.77
2019-05-23T18:07:02.679Z,100796.73
2019-05-23T18:09:31.950Z,100794.62
2019-05-23T18:12:01.072Z,100791.89
2019-05-23T18:14:30.253Z,100788.97
2019-05-23T18:16:59.212Z,100790.87
2019-05-23T18:19:28.390Z,100794.59
2019-05-23T18:21:57.538Z,100789.08
2019-05-23T18:24:26.832Z,100796.39
2019-05-23T18:26:56.074Z,100793.23
2019-05-23T18:29:25.374Z,100789.73
2019-05-23T18:31:55.474Z,100794.20
2019-05-23T18:34:24.842Z,100791.75
2019-05-23T18:36:53.826Z,100785.19
2019-05-23T18:39:24.442Z,100786.42
2019-05-23T18:41:53.392Z,100789.41
2019-05-23T18:44:22.622Z,100785.01
2019-05-23T18:46:53.724Z,100787.80
2019-05-23T18:49:22.874Z,100789.69
2019-05-23T18:51:52.011Z,100791.66
2019-05-23T18:54:21.436Z,100789.00
2019-05-23T18:56:51.000Z,100788.28
2019-05-23T18:59:20.521Z,100784.28
2019-05-23T19:01:50.934Z,100785.44
2019-05-23T19:04:19.819Z,100786.89
2019-05-23T19:06:48.751Z,100786.48
2019-05-23T19:09:18.255Z,100789.73
2019-05-23T19:11:47.516Z,100790.14
2019-05-23T19:14:16.734Z,100797.76
2019-05-23T19:16:46.390Z,100797.27
2019-05-23T19:19:15.301Z,100801.47
2019-05-23T19:21:44.976Z,100800.25
2019-05-23T19:24:13.954Z,100803.32
2019-05-23T19:26:42.825Z,100805.58
2019-05-23T19:29:12.034Z,100801.78
2019-05-23T19:31:41.616Z,100800.10
2019-05-23T19:34:11.011Z,100804.31
2019-05-23T19:36:40.208Z,100803.14
2019-05-23T19:39:09.335Z,100806.61
2019-05-23T19:41:38.513Z,100802.89
2019-05-23T19:44:07.692Z,100805.84
2019-05-23T19:46:36.697Z,100806.34
2019-05-23T19:49:06.211Z,100811.64
2019-05-23T19:51:35.109Z,100807.02
2019-05-23T19:54:04.409Z,100817.66
2019-05-23T19:56:33.385Z,100812.29
2019-05-23T19:59:02.338Z,100820.77
2019-05-23T20:01:37.065Z,100819.83
2019-05-23T20:04:06.195Z,100827.58
2019-05-23T20:06:36.064Z,100830.20
2019-05-23T20:09:09.651Z,100836.95
2019-05-23T20:11:53.353Z,100844.08
2019-05-23T20:14:09.303Z,100841.55
2019-05-23T20:16:38.188Z,100849.84
2019-05-23T20:19:07.031Z,100850.36
2019-05-23T20:21:36.268Z,100851.27
2019-05-23T20:24:05.439Z,100851.21
2019-05-23T20:26:34.581Z,100858.66
2019-05-23T20:29:03.703Z,100851.95
2019-05-23T20:31:32.636Z,100848.34
2019-05-23T20:34:01.697Z,100851.55
2019-05-23T20:36:30.996Z,100847.84
2019-05-23T20:39:00.218Z,100845.12
2019-05-23T20:41:29.417Z,100847.20
2019-05-23T20:43:58.215Z,100844.79
2019-05-23T20:46:27.283Z,100842.84
2019-05-23T20:48:56.440Z,100842.50
2019-05-23T20:51:25.925Z,100846.56
2019-05-23T20:53:55.129Z,100843.46
2019-05-23T20:56:24.055Z,100847.59
2019-05-23T20:58:53.065Z,100841.24
2019-05-23T21:01:26.552Z,100842.05
2019-05-23T21:03:56.862Z,100843.50
2019-05-23T21:06:25.720Z,100845.70
2019-05-23T21:08:54.853Z,100845.02
2019-05-23T21:11:24.186Z,100834.52
2019-05-23T21:13:53.396Z,100832.17
2019-05-23T21:16:22.566Z,100832.55
2019-05-23T21:18:51.438Z,100840.13
2019-05-23T21:21:20.873Z,100839.72
2019-05-23T21:23:49.969Z,100837.98
2019-05-23T21:26:19.076Z,100837.37
2019-05-23T21:28:48.369Z,100839.22
2019-05-23T21:31:24.657Z,100845.09
2019-05-23T21:33:53.498Z,100837.82
2019-05-23T21:36:22.468Z,100832.18
2019-05-23T21:38:51.459Z,100837.69
2019-05-23T21:41:20.343Z,100831.72
2019-05-23T21:43:51.360Z,100837.07
2019-05-23T21:46:20.327Z,100832.79
2019-05-23T21:48:49.541Z,100833.14
2019-05-23T21:51:18.699Z,100835.34
2019-05-23T21:53:47.590Z,100831.70
2019-05-23T21:56:16.539Z,100832.41
2019-05-23T21:58:45.479Z,100828.48
2019-05-23T22:01:43.216Z,100822.94
2019-05-23T22:04:26.516Z,100821.48
2019-05-23T22:07:14.356Z,100825.52
2019-05-23T22:09:43.316Z,100823.56
2019-05-23T22:12:14.587Z,100821.30
2019-05-23T22:14:44.671Z,100818.70
2019-05-23T22:17:13.799Z,100808.33
2019-05-23T22:19:42.761Z,100811.35
2019-05-23T22:22:11.941Z,100809.55
2019-05-23T22:24:40.840Z,100805.26
2019-05-23T22:27:10.368Z,100806.14
2019-05-23T22:29:39.286Z,100812.09
2019-05-23T22:32:10.087Z,100811.30
2019-05-23T22:34:43.886Z,100816.28
2019-05-23T22:37:18.172Z,100817.44
2019-05-23T22:39:47.506Z,100818.63
2019-05-23T22:42:16.609Z,100818.30
2019-05-23T22:44:45.509Z,100815.52
2019-05-23T22:47:14.349Z,100812.89
2019-05-23T22:49:43.205Z,100813.73
2019-05-23T22:52:12.348Z,100817.39
2019-05-23T22:54:41.141Z,100811.61
2019-05-23T22:57:09.977Z,100816.42
2019-05-23T22:59:39.146Z,100827.85
2019-05-23T23:02:11.603Z,100817.09
2019-05-23T23:04:40.470Z,100816.42
2019-05-23T23:07:09.304Z,100818.59
2019-05-23T23:09:38.209Z,100817.94
2019-05-23T23:12:08.103Z,100811.52
2019-05-23T23:14:36.965Z,100815.81
2019-05-23T23:17:06.087Z,100817.98
2019-05-23T23:19:35.023Z,100814.51
2019-05-23T23:22:03.989Z,100816.66
2019-05-23T23:24:33.206Z,100812.52
2019-05-23T23:27:02.478Z,100811.04
2019-05-23T23:29:31.727Z,100802.46
2019-05-23T23:32:03.740Z,100799.31
2019-05-23T23:34:31.360Z,100802.80
2019-05-23T23:37:00.395Z,100801.30
2019-05-23T23:39:29.898Z,100802.63
2019-05-23T23:41:59.127Z,100800.98
2019-05-23T23:44:36.047Z,100797.48
2019-05-23T23:47:23.779Z,100793.69
2019-05-23T23:50:10.336Z,100793.21
2019-05-23T23:52:57.449Z,100792.03
2019-05-23T23:55:44.161Z,100790.55
2019-05-23T23:58:12.420Z,100791.38
